createdAt,value
2023-02-13T00:01:05.145Z,12.73
2023-02-13T00:03:34.917Z,12.27
2023-02-13T00:06:02.875Z,13.13
2023-02-13T00:08:30.791Z,13.53
2023-02-13T00:10:59.276Z,13.73
2023-02-13T00:13:27.421Z,12.77
2023-02-13T00:15:59.642Z,12.87
2023-02-13T00:18:27.855Z,13.80
2023-02-13T00:21:01.529Z,13.17
2023-02-13T00:23:31.375Z,13.63
2023-02-13T00:25:59.351Z,13.63
2023-02-13T00:28:27.726Z,13.53
2023-02-13T00:30:56.332Z,13.47
2023-02-13T00:33:24.541Z,14.50
2023-02-13T00:35:52.513Z,14.63
2023-02-13T00:38:21.858Z,13.90
2023-02-13T00:40:49.702Z,13.43
2023-02-13T00:43:18.214Z,14.60
2023-02-13T00:45:47.209Z,14.93
2023-02-13T00:48:15.068Z,14.47
2023-02-13T00:50:42.998Z,13.73
2023-02-13T00:53:10.943Z,15.00
2023-02-13T00:55:40.222Z,15.40
2023-02-13T00:58:08.288Z,14.83
2023-02-13T01:00:36.172Z,14.57
2023-02-13T01:03:04.212Z,14.10
2023-02-13T01:05:32.193Z,15.67
2023-02-13T01:08:00.204Z,14.53
2023-02-13T01:10:28.554Z,14.77
2023-02-13T01:12:59.418Z,14.27
2023-02-13T01:15:27.418Z,14.67
2023-02-13T01:17:57.491Z,14.57
2023-02-13T01:20:26.277Z,14.27
2023-02-13T01:22:54.183Z,15.00
2023-02-13T01:25:22.526Z,14.90
2023-02-13T01:27:50.689Z,14.47
2023-02-13T01:30:20.992Z,15.60
2023-02-13T01:32:49.455Z,15.13
2023-02-13T01:35:17.891Z,15.67
2023-02-13T01:37:45.807Z,15.30
2023-02-13T01:40:17.334Z,15.53
2023-02-13T01:42:45.466Z,14.77
2023-02-13T01:45:28.255Z,15.33
2023-02-13T01:47:59.487Z,15.27
2023-02-13T01:50:33.905Z,14.20
2023-02-13T01:53:07.235Z,14.53
2023-02-13T01:55:39.035Z,14.40
2023-02-13T01:58:10.723Z,13.70
2023-02-13T02:00:40.875Z,13.23
2023-02-13T02:03:13.809Z,15.33
2023-02-13T02:05:42.603Z,13.80
2023-02-13T02:08:13.868Z,14.40
2023-02-13T02:10:42.648Z,14.07
2023-02-13T02:13:13.594Z,14.33
2023-02-13T02:15:44.039Z,13.43
2023-02-13T02:18:16.465Z,13.30
2023-02-13T02:21:20.933Z,12.90
2023-02-13T02:24:17.489Z,13.60
2023-02-13T02:27:17.290Z,12.93
2023-02-13T02:30:26.804Z,13.27
2023-02-13T02:33:10.310Z,12.07
2023-02-13T02:35:47.308Z,12.97
2023-02-13T02:38:26.980Z,12.40
2023-02-13T02:41:05.112Z,12.73
2023-02-13T02:43:53.988Z,12.20
2023-02-13T02:46:29.188Z,12.37
2023-02-13T02:49:35.120Z,13.43
2023-02-13T02:52:08.746Z,12.67
2023-02-13T02:55:02.214Z,12.33
2023-02-13T02:57:52.747Z,12.03
2023-02-13T03:00:45.211Z,12.03
2023-02-13T03:03:36.216Z,11.87
2023-02-13T03:06:14.216Z,10.90
2023-02-13T03:09:02.605Z,11.73
2023-02-13T03:11:47.798Z,11.67
2023-02-13T03:14:20.496Z,12.20
2023-02-13T03:17:07.048Z,11.33
2023-02-13T03:20:05.561Z,11.43
2023-02-13T03:22:46.122Z,11.50
2023-02-13T03:25:30.200Z,10.97
2023-02-13T03:28:23.068Z,10.83
2023-02-13T03:31:01.214Z,10.90
2023-02-13T03:33:43.181Z,11.80
2023-02-13T03:36:38.430Z,11.70
2023-02-13T03:39:13.937Z,11.23
2023-02-13T03:41:46.985Z,11.33
2023-02-13T03:44:21.920Z,11.37
2023-02-13T03:46:53.057Z,11.37
2023-02-13T03:49:41.383Z,11.30
2023-02-13T03:52:17.299Z,11.63
2023-02-13T03:55:09.687Z,11.67
2023-02-13T03:57:58.433Z,11.27
2023-02-13T04:00:29.759Z,11.77
2023-02-13T04:03:05.932Z,11.70
2023-02-13T04:05:41.246Z,11.27
2023-02-13T04:08:09.245Z,9.70
2023-02-13T04:10:46.203Z,10.70
2023-02-13T04:13:19.110Z,10.60
2023-02-13T04:15:51.657Z,10.57
2023-02-13T04:18:23.139Z,11.33
2023-02-13T04:20:51.191Z,11.10
2023-02-13T04:23:19.171Z,11.17
2023-02-13T04:25:51.957Z,10.60
2023-02-13T04:28:20.074Z,10.23
2023-02-13T04:30:48.430Z,10.37
2023-02-13T04:33:16.933Z,10.00
2023-02-13T04:35:44.809Z,11.10
2023-02-13T04:38:12.651Z,11.70
2023-02-13T04:40:40.502Z,11.33
2023-02-13T04:43:09.811Z,10.50
2023-02-13T04:45:37.691Z,9.97
2023-02-13T04:48:06.088Z,9.53
2023-02-13T04:50:34.002Z,10.10
2023-02-13T04:53:01.957Z,11.17
2023-02-13T04:55:29.856Z,10.73
2023-02-13T04:57:58.654Z,10.93
2023-02-13T05:00:29.934Z,10.67
2023-02-13T05:03:05.254Z,10.23
2023-02-13T05:05:33.353Z,11.17
2023-02-13T05:08:02.142Z,10.47
2023-02-13T05:10:30.054Z,11.27
2023-02-13T05:12:58.014Z,10.80
2023-02-13T05:15:26.056Z,11.70
2023-02-13T05:17:55.601Z,10.77
2023-02-13T05:20:23.662Z,10.93
2023-02-13T05:23:10.805Z,10.80
2023-02-13T05:25:40.932Z,11.23
2023-02-13T05:28:29.665Z,12.50
2023-02-13T05:30:57.782Z,11.33
2023-02-13T05:33:27.632Z,11.13
2023-02-13T05:35:56.440Z,11.40
2023-02-13T05:38:24.316Z,12.23
2023-02-13T05:40:52.159Z,11.97
2023-02-13T05:43:21.233Z,11.13
2023-02-13T05:45:49.403Z,11.90
2023-02-13T05:48:17.221Z,12.03
2023-02-13T05:50:47.566Z,11.90
2023-02-13T05:53:15.435Z,11.83
2023-02-13T05:55:43.361Z,12.67
2023-02-13T05:58:11.976Z,12.17
2023-02-13T06:00:40.370Z,12.57
2023-02-13T06:03:08.240Z,11.30
2023-02-13T06:05:36.054Z,12.30
2023-02-13T06:08:05.702Z,12.17
2023-02-13T06:10:33.608Z,12.63
2023-02-13T06:13:01.534Z,11.67
2023-02-13T06:15:29.621Z,12.27
2023-02-13T06:17:57.648Z,11.13
2023-02-13T06:20:25.569Z,12.07
2023-02-13T06:22:54.350Z,11.60
2023-02-13T06:25:23.684Z,10.57
2023-02-13T06:27:51.614Z,11.60
2023-02-13T06:30:20.345Z,11.40
2023-02-13T06:32:49.148Z,10.63
2023-02-13T06:35:17.542Z,11.70
2023-02-13T06:37:46.483Z,11.17
2023-02-13T06:40:15.971Z,11.63
2023-02-13T06:42:46.886Z,11.23
2023-02-13T06:45:15.119Z,12.03
2023-02-13T06:47:44.125Z,12.00
2023-02-13T06:50:13.845Z,12.67
2023-02-13T06:52:46.262Z,12.73
2023-02-13T06:55:14.588Z,12.13
2023-02-13T06:57:43.024Z,11.83
2023-02-13T07:00:14.394Z,12.37
2023-02-13T07:02:43.076Z,11.67
2023-02-13T07:05:14.239Z,13.10
2023-02-13T07:07:43.442Z,13.20
2023-02-13T07:10:13.733Z,12.50
2023-02-13T07:12:41.671Z,12.77
2023-02-13T07:15:10.196Z,12.77
2023-02-13T07:17:39.538Z,12.43
2023-02-13T07:20:09.473Z,12.73
2023-02-13T07:22:37.450Z,12.10
2023-02-13T07:25:05.352Z,12.20
2023-02-13T07:27:33.595Z,13.40
2023-02-13T07:30:01.867Z,13.17
2023-02-13T07:32:32.190Z,12.70
2023-02-13T07:35:02.647Z,12.63
2023-02-13T07:37:31.373Z,12.77
2023-02-13T07:40:05.608Z,13.17
2023-02-13T07:42:35.009Z,13.30
2023-02-13T07:45:05.716Z,13.67
2023-02-13T07:47:34.773Z,12.80
2023-02-13T07:50:05.967Z,13.03
2023-02-13T07:52:34.042Z,13.17
2023-02-13T07:55:01.957Z,13.80
2023-02-13T07:57:31.715Z,13.13
2023-02-13T07:59:59.953Z,14.60
2023-02-13T08:02:27.856Z,14.67
2023-02-13T08:04:55.831Z,13.33
2023-02-13T08:07:25.198Z,13.07
2023-02-13T08:10:10.731Z,14.20
2023-02-13T08:12:38.575Z,13.40
2023-02-13T08:15:07.584Z,13.50
2023-02-13T08:17:35.439Z,14.17
2023-02-13T08:20:03.341Z,13.53
2023-02-13T08:22:32.492Z,13.87
2023-02-13T08:25:00.397Z,13.73
2023-02-13T08:27:30.212Z,13.40
2023-02-13T08:29:58.456Z,13.60
2023-02-13T08:32:26.923Z,12.83
2023-02-13T08:34:54.742Z,13.03
2023-02-13T08:37:22.600Z,12.63
2023-02-13T08:39:51.929Z,12.67
2023-02-13T08:42:20.027Z,12.60
2023-02-13T08:44:47.940Z,13.80
2023-02-13T08:47:15.959Z,13.13
2023-02-13T08:49:44.227Z,12.73
2023-02-13T08:52:12.051Z,14.03
2023-02-13T08:54:39.893Z,12.97
2023-02-13T08:57:09.628Z,13.00
2023-02-13T08:59:37.410Z,14.00
2023-02-13T09:02:05.395Z,12.83
2023-02-13T09:04:33.250Z,12.77
2023-02-13T09:07:01.077Z,12.63
2023-02-13T09:09:29.200Z,12.80
2023-02-13T09:11:57.923Z,12.73
2023-02-13T09:14:27.189Z,12.77
2023-02-13T09:16:55.224Z,12.33
2023-02-13T09:19:23.195Z,12.83
2023-02-13T09:21:51.097Z,12.10
2023-02-13T09:24:18.964Z,12.17
2023-02-13T09:26:46.792Z,12.93
2023-02-13T09:29:14.640Z,12.53
2023-02-13T09:31:44.106Z,12.50
2023-02-13T09:34:11.985Z,12.30
2023-02-13T09:36:39.793Z,12.67
2023-02-13T09:39:07.713Z,12.90
2023-02-13T09:41:39.800Z,12.87
2023-02-13T09:44:12.966Z,13.00
2023-02-13T09:46:41.848Z,13.63
2023-02-13T09:49:16.529Z,13.30
2023-02-13T09:51:46.392Z,12.73
2023-02-13T09:54:19.189Z,13.00
2023-02-13T09:56:54.949Z,12.97
2023-02-13T09:59:40.971Z,12.73
2023-02-13T10:02:24.503Z,12.77
2023-02-13T10:05:07.592Z,12.40
2023-02-13T10:07:41.211Z,12.70
2023-02-13T10:10:20.259Z,12.10
2023-02-13T10:13:08.598Z,13.63
2023-02-13T10:15:43.152Z,12.57
2023-02-13T10:18:14.145Z,13.43
2023-02-13T10:20:49.275Z,12.07
2023-02-13T10:23:23.564Z,11.77
2023-02-13T10:25:57.476Z,12.63
2023-02-13T10:28:34.763Z,12.47
2023-02-13T10:31:07.708Z,13.17
2023-02-13T10:33:41.991Z,12.87
2023-02-13T10:36:19.993Z,12.27
2023-02-13T10:38:57.767Z,13.57
2023-02-13T10:41:33.077Z,13.77
2023-02-13T10:44:17.223Z,13.53
2023-02-13T10:46:57.130Z,12.83
2023-02-13T10:49:45.304Z,13.30
2023-02-13T10:52:29.830Z,13.57
2023-02-13T10:55:15.577Z,12.90
2023-02-13T10:58:03.145Z,12.47
2023-02-13T11:00:36.068Z,12.70
2023-02-13T11:03:04.199Z,12.73
2023-02-13T11:05:34.952Z,13.10
2023-02-13T11:08:04.957Z,13.57
2023-02-13T11:10:33.234Z,13.63
2023-02-13T11:13:33.666Z,14.67
2023-02-13T11:16:04.806Z,13.63
2023-02-13T11:18:35.833Z,13.90
2023-02-13T11:21:09.115Z,14.27
2023-02-13T11:23:47.647Z,14.43
2023-02-13T11:26:24.259Z,14.77
2023-02-13T11:29:02.070Z,15.47
2023-02-13T11:31:33.134Z,14.73
2023-02-13T11:34:19.382Z,14.93
2023-02-13T11:36:48.299Z,15.03
2023-02-13T11:39:24.244Z,15.27
2023-02-13T11:41:55.288Z,15.37
2023-02-13T11:44:28.225Z,15.10
2023-02-13T11:46:58.476Z,15.80
2023-02-13T11:49:28.901Z,15.73
2023-02-13T11:51:58.814Z,15.83
2023-02-13T11:54:37.463Z,16.23
2023-02-13T11:57:21.092Z,15.50
2023-02-13T11:59:56.393Z,16.13
2023-02-13T12:02:27.013Z,16.40
2023-02-13T12:05:00.175Z,15.53
2023-02-13T12:07:31.115Z,16.77
2023-02-13T12:10:06.094Z,16.93
2023-02-13T12:12:50.918Z,17.03
2023-02-13T12:15:23.891Z,17.83
2023-02-13T12:18:06.517Z,18.87
2023-02-13T12:20:44.870Z,17.70
2023-02-13T12:23:27.439Z,16.60
2023-02-13T12:26:22.333Z,17.53
2023-02-13T12:29:11.120Z,17.73
2023-02-13T12:31:59.499Z,18.13
2023-02-13T12:35:00.230Z,20.27
2023-02-13T12:37:47.593Z,18.63
2023-02-13T12:40:40.651Z,20.00
2023-02-13T12:43:33.221Z,20.63
2023-02-13T12:46:06.706Z,19.73
2023-02-13T12:48:42.998Z,19.97
2023-02-13T12:51:26.710Z,20.80
2023-02-13T12:54:15.332Z,20.60
2023-02-13T12:57:16.811Z,19.33
2023-02-13T13:00:00.802Z,20.10
2023-02-13T13:02:54.868Z,22.10
2023-02-13T13:05:37.813Z,21.10
2023-02-13T13:08:25.971Z,21.37
2023-02-13T13:11:15.223Z,20.50
2023-02-13T13:14:00.925Z,22.57
2023-02-13T13:16:45.255Z,23.47
2023-02-13T13:19:22.058Z,21.80
2023-02-13T13:21:57.250Z,21.37
2023-02-13T13:24:34.822Z,22.03
2023-02-13T13:27:05.071Z,21.47
2023-02-13T13:29:41.143Z,21.87
2023-02-13T13:32:16.284Z,20.93
2023-02-13T13:34:44.365Z,21.27
2023-02-13T13:37:18.673Z,23.37
2023-02-13T13:39:54.900Z,22.03
2023-02-13T13:42:33.797Z,23.23
2023-02-13T13:45:22.009Z,22.10
2023-02-13T13:48:03.038Z,20.57
2023-02-13T13:50:33.038Z,21.70
2023-02-13T13:53:12.082Z,20.47
2023-02-13T13:56:09.438Z,20.37
2023-02-13T13:58:41.456Z,20.73
2023-02-13T14:01:22.297Z,20.60
2023-02-13T14:03:54.281Z,20.70
2023-02-13T14:06:24.818Z,22.30
2023-02-13T14:09:00.549Z,21.90
2023-02-13T14:11:38.189Z,21.37
2023-02-13T14:14:50.785Z,21.37
2023-02-13T14:17:34.490Z,21.43
2023-02-13T14:20:06.784Z,21.60
2023-02-13T14:22:39.325Z,20.37
2023-02-13T14:25:22.657Z,20.87
2023-02-13T14:27:59.203Z,21.53
2023-02-13T14:30:31.382Z,20.93
2023-02-13T14:33:02.730Z,24.10
2023-02-13T14:35:34.997Z,23.17
2023-02-13T14:38:07.393Z,23.10
2023-02-13T14:40:53.765Z,22.57
2023-02-13T14:43:31.419Z,20.77
2023-02-13T14:46:05.903Z,22.27
2023-02-13T14:48:41.185Z,21.37
2023-02-13T14:51:20.089Z,21.20
2023-02-13T14:53:52.950Z,22.67
2023-02-13T14:56:23.688Z,21.90
2023-02-13T14:58:55.894Z,22.17
2023-02-13T15:01:31.383Z,21.07
2023-02-13T15:04:05.683Z,23.33
2023-02-13T15:06:39.586Z,23.20
2023-02-13T15:09:18.730Z,24.43
2023-02-13T15:11:47.464Z,22.73
2023-02-13T15:14:34.854Z,22.73
2023-02-13T15:17:08.188Z,23.23
2023-02-13T15:19:40.086Z,25.23
2023-02-13T15:22:18.855Z,23.03
2023-02-13T15:24:48.648Z,24.10
2023-02-13T15:27:21.410Z,23.73
2023-02-13T15:29:56.954Z,22.17
2023-02-13T15:32:30.019Z,24.13
2023-02-13T15:34:57.892Z,24.20
2023-02-13T15:37:30.668Z,24.57
2023-02-13T15:40:25.028Z,22.80
2023-02-13T15:42:54.247Z,25.33
2023-02-13T15:45:24.454Z,22.53
2023-02-13T15:47:53.110Z,22.77
2023-02-13T15:50:29.581Z,23.60
2023-02-13T15:52:59.556Z,24.00
2023-02-13T15:55:30.332Z,22.57
2023-02-13T15:58:01.066Z,23.80
2023-02-13T16:00:32.273Z,23.83
2023-02-13T16:03:03.558Z,23.60
2023-02-13T16:05:41.446Z,22.77
2023-02-13T16:08:33.794Z,24.90
2023-02-13T16:11:19.361Z,23.50
2023-02-13T16:14:00.215Z,21.73
2023-02-13T16:16:29.489Z,21.10
2023-02-13T16:18:57.684Z,22.57
2023-02-13T16:21:27.474Z,22.37
2023-02-13T16:24:00.902Z,22.47
2023-02-13T16:26:29.155Z,24.30
2023-02-13T16:28:57.072Z,22.50
2023-02-13T16:31:25.181Z,22.13
2023-02-13T16:34:14.402Z,23.43
2023-02-13T16:37:00.897Z,23.30
2023-02-13T16:39:49.512Z,23.00
2023-02-13T16:45:25.039Z,21.40
2023-02-13T16:48:03.783Z,21.73
2023-02-13T16:50:35.136Z,21.20
2023-02-13T16:53:06.606Z,21.17
2023-02-13T16:55:35.932Z,20.80
2023-02-13T16:58:13.415Z,20.00
2023-02-13T17:00:44.361Z,19.70
2023-02-13T17:03:16.262Z,18.80
2023-02-13T17:05:47.401Z,18.60
2023-02-13T17:08:15.457Z,20.23
2023-02-13T17:11:06.771Z,38.63
2023-02-13T17:13:35.740Z,43.70
2023-02-13T17:16:03.714Z,53.17
2023-02-13T17:18:31.566Z,55.00
2023-02-13T17:20:59.792Z,54.20
2023-02-13T17:23:27.991Z,51.53
2023-02-13T17:25:59.292Z,51.03
2023-02-13T17:28:30.441Z,44.80
2023-02-13T17:31:00.685Z,39.50
2023-02-13T17:33:30.626Z,54.33
2023-02-13T17:35:58.906Z,60.53
2023-02-13T17:38:26.852Z,58.90
2023-02-13T17:40:54.921Z,45.43
2023-02-13T17:43:25.387Z,40.40
2023-02-13T17:45:53.422Z,30.97
2023-02-13T17:48:21.879Z,27.90
2023-02-13T17:50:51.570Z,25.63
2023-02-13T17:53:23.582Z,26.17
2023-02-13T17:55:52.258Z,25.27
2023-02-13T17:58:20.285Z,22.90
2023-02-13T18:00:49.721Z,24.77
2023-02-13T18:03:17.755Z,24.30
2023-02-13T18:05:48.548Z,23.07
2023-02-13T18:08:16.503Z,23.73
2023-02-13T18:10:44.360Z,22.87
2023-02-13T18:13:12.271Z,22.17
2023-02-13T18:15:42.676Z,23.07
2023-02-13T18:18:13.198Z,21.63
2023-02-13T18:20:41.176Z,20.77
2023-02-13T18:23:09.746Z,22.63
2023-02-13T18:25:37.850Z,22.00
2023-02-13T18:28:05.706Z,21.47
2023-02-13T18:30:33.639Z,22.17
2023-02-13T18:33:05.006Z,20.83
2023-02-13T18:35:36.595Z,22.10
2023-02-13T18:38:04.441Z,22.37
2023-02-13T18:40:32.301Z,22.77
2023-02-13T18:43:07.231Z,23.67
2023-02-13T18:45:37.125Z,24.37
2023-02-13T18:48:09.481Z,24.43
2023-02-13T18:50:43.407Z,23.87
2023-02-13T18:53:12.277Z,24.57
2023-02-13T18:55:40.493Z,24.17
2023-02-13T18:58:08.618Z,24.77
2023-02-13T19:00:40.857Z,23.53
2023-02-13T19:03:11.534Z,22.83
2023-02-13T19:05:48.164Z,22.93
2023-02-13T19:08:16.291Z,22.93
2023-02-13T19:10:44.142Z,23.20
2023-02-13T19:13:12.094Z,22.97
2023-02-13T19:15:40.337Z,24.83
2023-02-13T19:18:08.209Z,24.67
2023-02-13T19:20:38.551Z,24.67
2023-02-13T19:23:08.226Z,25.07
2023-02-13T19:25:37.904Z,24.50
2023-02-13T19:28:06.284Z,25.37
2023-02-13T19:30:34.232Z,26.57
2023-02-13T19:33:02.138Z,25.83
2023-02-13T19:35:30.060Z,24.83
2023-02-13T19:37:57.914Z,24.53
2023-02-13T19:40:27.222Z,25.80
2023-02-13T19:42:55.163Z,24.37
2023-02-13T19:45:23.141Z,24.90
2023-02-13T19:47:51.057Z,24.47
2023-02-13T19:50:18.979Z,25.47
2023-02-13T19:52:46.865Z,25.33
2023-02-13T19:55:15.084Z,24.17
2023-02-13T19:57:44.416Z,25.40
2023-02-13T20:00:13.326Z,25.93
2023-02-13T20:02:41.305Z,25.30
2023-02-13T20:05:09.714Z,25.70
2023-02-13T20:07:37.803Z,26.60
2023-02-13T20:10:07.075Z,24.63
2023-02-13T20:12:35.038Z,26.00
2023-02-13T20:15:04.824Z,25.27
2023-02-13T20:17:32.772Z,26.23
2023-02-13T20:20:00.677Z,26.63
2023-02-13T20:22:30.881Z,27.23
2023-02-13T20:24:58.833Z,25.27
2023-02-13T20:27:26.852Z,26.73
2023-02-13T20:30:03.374Z,26.83
2023-02-13T20:32:36.428Z,26.50
2023-02-13T20:35:04.699Z,25.93
2023-02-13T20:37:32.918Z,25.53
2023-02-13T20:40:00.977Z,25.70
2023-02-13T20:42:32.385Z,26.93
2023-02-13T20:45:00.394Z,27.03
2023-02-13T20:47:28.390Z,26.70
2023-02-13T20:49:57.713Z,26.47
2023-02-13T20:52:25.948Z,24.90
2023-02-13T20:54:53.861Z,29.03
2023-02-13T20:57:21.759Z,26.27
2023-02-13T20:59:49.657Z,26.67
2023-02-13T21:02:19.500Z,26.50
2023-02-13T21:04:47.437Z,27.37
2023-02-13T21:07:17.328Z,27.83
2023-02-13T21:09:45.462Z,28.00
2023-02-13T21:12:13.359Z,27.23
2023-02-13T21:14:41.351Z,26.70
2023-02-13T21:17:10.112Z,26.07
2023-02-13T21:19:38.101Z,26.00
2023-02-13T21:22:12.295Z,27.20
2023-02-13T21:24:43.201Z,27.10
2023-02-13T21:27:11.876Z,25.47
2023-02-13T21:29:40.021Z,26.27
2023-02-13T21:32:07.935Z,27.20
2023-02-13T21:34:36.570Z,26.37
2023-02-13T21:37:04.592Z,27.30
2023-02-13T21:39:32.548Z,27.70
2023-02-13T21:42:01.983Z,27.07
2023-02-13T21:44:29.913Z,27.13
2023-02-13T21:46:58.062Z,28.43
2023-02-13T21:49:27.683Z,28.73
2023-02-13T21:51:55.640Z,26.70
2023-02-13T21:54:23.453Z,26.90
2023-02-13T21:56:51.305Z,26.83
2023-02-13T21:59:20.527Z,26.47
2023-02-13T22:01:50.551Z,26.13
2023-02-13T22:04:19.097Z,26.03
2023-02-13T22:06:50.030Z,26.87
2023-02-13T22:09:20.115Z,26.03
2023-02-13T22:11:49.134Z,27.50
2023-02-13T22:14:20.375Z,28.00
2023-02-13T22:16:51.024Z,26.93
2023-02-13T22:19:20.275Z,28.03
2023-02-13T22:21:48.313Z,28.43
2023-02-13T22:24:16.296Z,28.80
2023-02-13T22:26:45.633Z,27.90
2023-02-13T22:29:15.183Z,28.50
2023-02-13T22:31:44.859Z,27.80
2023-02-13T22:34:14.409Z,27.40
2023-02-13T22:36:43.180Z,26.47
2023-02-13T22:39:12.748Z,26.77
2023-02-13T22:41:41.213Z,29.33
2023-02-13T22:44:09.135Z,28.80
2023-02-13T22:46:37.078Z,28.03
2023-02-13T22:49:06.374Z,29.57
2023-02-13T22:51:36.932Z,27.70
2023-02-13T22:54:05.631Z,27.40
2023-02-13T22:56:34.432Z,28.33
2023-02-13T22:59:02.451Z,29.23
2023-02-13T23:01:31.072Z,27.57
2023-02-13T23:03:59.630Z,28.93
2023-02-13T23:06:28.942Z,28.30
2023-02-13T23:08:57.744Z,29.03
2023-02-13T23:11:45.409Z,28.40
2023-02-13T23:14:14.126Z,28.30
2023-02-13T23:17:00.964Z,27.40
2023-02-13T23:19:30.050Z,28.17
2023-02-13T23:21:59.835Z,27.67
2023-02-13T23:24:28.468Z,27.90
2023-02-13T23:26:56.536Z,28.23
2023-02-13T23:29:24.610Z,29.30
2023-02-13T23:31:52.564Z,28.20
2023-02-13T23:34:20.925Z,28.87
2023-02-13T23:36:48.913Z,27.53
2023-02-13T23:39:18.135Z,26.40
2023-02-13T23:41:46.089Z,27.00
2023-02-13T23:44:13.972Z,27.03
2023-02-13T23:46:41.988Z,28.53
2023-02-13T23:49:10.392Z,29.03
2023-02-13T23:51:38.391Z,27.03
2023-02-13T23:54:06.643Z,28.33
2023-02-13T23:56:36.021Z,28.80
2023-02-13T23:59:03.938Z,27.23
